Disclaimer

Please do not use the information listed here in-flight or in-navigation, as they are not provided to us by the airports but are provided by volunteers, so they might be outdated.

Search


Regions


Airport information page

Radio informations:
Tower (TWR) - 118.9 MHz
Automatic Terminal Information Service (ATIS) - 123.8 MHz
Approach (APP) - 124.9 MHz

Airport informations:
Latitude: 05° 00' 55.78" N
Longitude: 006° 56' 58.54" E
Elevation: 87 feet - 27 meters
Operating hours: N/A
Operating agency: Civil government, landing fees and diplomatic clearance may be required
Timezone: UTC+1
Fuel: Unknown fuel type or whether there is any fuel.

Runway information:
03/21 - 9846 x 197 feet< - >3001 x 60 meters

Recent METARs:
DNPO 131400Z 06003KT 9999 BKN012 FEW022CB 32/25 Q1006 TEMPO TS
DNPO 131500Z 15005KT 8000 -TSRA BKN009 FEW020CB 28/24 Q1005 TEMPO 5000
DNPO 131500Z 15005KT 8000 -TSRA BKN009 FEW020CB 28/24 Q1005 TEMPO 5000

Airport on the map: